Time;durP1;ratioP1;P1;durP2;ratioP2;P2;SDS_P1;SDS_P2;PMS_P1;PMS_P2;Temp;Humidity;BMP_temperature;BMP_pressure;BME280_temperature;BME280_humidity;BME280_pressure;Samples;Min_cycle;Max_cycle;Signal;HPM_P1;HPM_P2
2022/08/24 00:00:23;;;;;;;5.90;2.80;;;;;;;;;;5093020;28;20771;-77
2022/08/24 00:02:51;;;;;;;6.63;2.87;;;;;;;;;;5093016;28;20987;-79
2022/08/24 00:05:20;;;;;;;4.70;3.00;;;;;;;;;;5093299;28;20570;-79
2022/08/24 00:07:48;;;;;;;3.43;2.50;;;;;;;;;;5092900;28;20462;-78
2022/08/24 00:10:16;;;;;;;6.83;2.90;;;;;;;;;;5093878;28;20948;-78
2022/08/24 00:12:43;;;;;;;6.57;3.23;;;;;;;;;;5094647;28;20481;-79
2022/08/24 00:15:11;;;;;;;4.60;2.60;;;;;;;;;;5088629;28;20450;-78
2022/08/24 00:17:40;;;;;;;3.50;2.60;;;;;;;;;;5087945;28;20428;-79
2022/08/24 00:20:09;;;;;;;5.03;2.87;;;;;;;;;;5091929;28;20807;-78
2022/08/24 00:22:36;;;;;;;6.40;2.63;;;;;;;;;;5092328;28;20538;-78
2022/08/24 00:25:03;;;;;;;4.57;2.90;;;;;;;;;;5092410;28;20461;-79
2022/08/24 00:27:31;;;;;;;4.50;2.83;;;;;;;;;;5093148;28;20910;-79
2022/08/24 00:29:58;;;;;;;3.20;2.60;;;;;;;;;;5092572;28;20450;-78
2022/08/24 00:32:28;;;;;;;4.50;2.67;;;;;;;;;;5094609;28;20820;-78
2022/08/24 00:34:56;;;;;;;4.63;3.03;;;;;;;;;;5094703;28;20467;-78
2022/08/24 00:37:24;;;;;;;5.87;3.00;;;;;;;;;;5088083;28;20442;-79
2022/08/24 00:39:51;;;;;;;4.73;3.07;;;;;;;;;;5088155;28;20432;-78
2022/08/24 00:42:18;;;;;;;3.13;2.30;;;;;;;;;;5091477;28;20958;-78
2022/08/24 00:44:46;;;;;;;4.70;2.67;;;;;;;;;;5091952;28;20963;-80
2022/08/24 00:47:18;;;;;;;3.83;2.60;;;;;;;;;;5092150;28;20815;-79
2022/08/24 00:49:56;;;;;;;4.23;2.70;;;;;;;;;;5092537;28;20817;-80
2022/08/24 00:52:26;;;;;;;3.63;2.50;;;;;;;;;;5092026;28;20879;-80
2022/08/24 00:54:55;;;;;;;7.60;2.93;;;;;;;;;;5094284;28;20571;-78
2022/08/24 00:57:25;;;;;;;5.40;2.67;;;;;;;;;;5093539;28;21026;-78
2022/08/24 00:59:54;;;;;;;4.20;2.90;;;;;;;;;;5087802;28;20519;-78
2022/08/24 01:02:23;;;;;;;4.73;3.00;;;;;;;;;;5087580;28;20456;-78
2022/08/24 01:04:53;;;;;;;6.43;2.90;;;;;;;;;;5090890;28;20861;-79
2022/08/24 01:07:21;;;;;;;4.70;3.10;;;;;;;;;;5091674;28;20444;-80
2022/08/24 01:09:54;;;;;;;9.50;3.43;;;;;;;;;;5092131;28;20474;-80
2022/08/24 01:12:21;;;;;;;5.67;3.47;;;;;;;;;;5090963;28;20522;-79
2022/08/24 01:14:49;;;;;;;5.13;3.13;;;;;;;;;;5090872;28;20881;-79
2022/08/24 01:19:59;;;;;;;6.13;3.43;;;;;;;;;;5092207;28;20437;-78
2022/08/24 01:22:34;;;;;;;7.37;3.80;;;;;;;;;;5087579;28;20883;-80
2022/08/24 01:25:02;;;;;;;5.90;3.43;;;;;;;;;;5088470;28;20888;-78
2022/08/24 01:27:30;;;;;;;4.97;3.53;;;;;;;;;;5090170;28;20435;-79
2022/08/24 01:29:59;;;;;;;5.07;3.00;;;;;;;;;;5091346;28;20958;-80
2022/08/24 01:32:27;;;;;;;4.83;2.97;;;;;;;;;;5091722;28;20471;-79
2022/08/24 01:34:55;;;;;;;9.03;3.23;;;;;;;;;;5091917;28;20991;-77
2022/08/24 01:37:22;;;;;;;5.00;3.17;;;;;;;;;;5090810;28;20561;-79
2022/08/24 01:39:50;;;;;;;6.60;3.30;;;;;;;;;;5092554;28;20526;-79
2022/08/24 01:42:19;;;;;;;4.90;3.10;;;;;;;;;;5090974;28;20514;-78
2022/08/24 01:44:47;;;;;;;6.50;3.50;;;;;;;;;;5087170;28;20458;-79
2022/08/24 01:47:16;;;;;;;6.83;3.10;;;;;;;;;;5088338;28;20526;-78
2022/08/24 01:49:45;;;;;;;7.63;3.47;;;;;;;;;;5091252;28;20542;-80
2022/08/24 01:52:14;;;;;;;6.87;3.50;;;;;;;;;;5093988;28;20435;-79
2022/08/24 01:54:42;;;;;;;6.90;3.60;;;;;;;;;;5094052;28;20863;-79
2022/08/24 01:57:09;;;;;;;6.00;3.20;;;;;;;;;;5094676;28;20924;-79
2022/08/24 01:59:38;;;;;;;5.50;3.33;;;;;;;;;;5095954;28;20439;-78
2022/08/24 02:02:08;;;;;;;4.33;3.13;;;;;;;;;;5097599;28;20496;-78
2022/08/24 02:04:35;;;;;;;6.03;3.30;;;;;;;;;;5095185;28;20979;-77
2022/08/24 02:07:03;;;;;;;3.23;2.80;;;;;;;;;;5089815;28;20431;-78
2022/08/24 02:09:30;;;;;;;6.77;3.60;;;;;;;;;;5092292;28;20441;-79
2022/08/24 02:11:57;;;;;;;5.33;2.63;;;;;;;;;;5095136;28;20892;-79
2022/08/24 02:14:25;;;;;;;5.03;3.40;;;;;;;;;;5095079;28;20979;-78
2022/08/24 02:16:53;;;;;;;9.00;3.83;;;;;;;;;;5095110;28;20851;-79
2022/08/24 02:19:20;;;;;;;4.70;2.90;;;;;;;;;;5095505;28;20441;-78
2022/08/24 02:21:48;;;;;;;5.00;3.50;;;;;;;;;;5095303;28;20462;-79
2022/08/24 02:24:15;;;;;;;3.87;3.13;;;;;;;;;;5097161;28;20435;-77
2022/08/24 02:26:42;;;;;;;5.30;3.50;;;;;;;;;;5095061;28;20829;-79
2022/08/24 02:29:09;;;;;;;7.03;3.77;;;;;;;;;;5090556;28;20427;-78
2022/08/24 02:31:37;;;;;;;4.30;3.30;;;;;;;;;;5091769;28;20439;-79
2022/08/24 02:34:05;;;;;;;4.40;3.50;;;;;;;;;;5094288;28;20566;-78
2022/08/24 02:36:32;;;;;;;5.47;3.10;;;;;;;;;;5094698;28;20462;-79
2022/08/24 02:39:00;;;;;;;5.97;3.53;;;;;;;;;;5094835;28;20435;-79
2022/08/24 02:41:27;;;;;;;6.40;3.40;;;;;;;;;;5095238;28;20538;-80
2022/08/24 02:43:55;;;;;;;4.13;3.47;;;;;;;;;;5094028;28;20530;-78
2022/08/24 02:46:24;;;;;;;7.13;3.77;;;;;;;;;;5096812;28;20482;-78
2022/08/24 02:48:51;;;;;;;6.27;3.63;;;;;;;;;;5094407;28;20637;-78
2022/08/24 02:51:21;;;;;;;6.13;3.50;;;;;;;;;;5090181;28;20526;-77
2022/08/24 02:53:48;;;;;;;5.20;3.33;;;;;;;;;;5091571;28;20485;-78
2022/08/24 02:56:16;;;;;;;3.83;2.93;;;;;;;;;;5094216;28;20455;-79
2022/08/24 02:58:43;;;;;;;8.10;3.70;;;;;;;;;;5094021;28;20442;-78
2022/08/24 03:01:12;;;;;;;5.43;3.47;;;;;;;;;;5093932;28;20448;-77
2022/08/24 03:03:40;;;;;;;4.90;3.47;;;;;;;;;;5094818;28;20447;-78
2022/08/24 03:06:08;;;;;;;10.07;4.00;;;;;;;;;;5093362;28;20471;-79
2022/08/24 03:08:37;;;;;;;5.10;3.07;;;;;;;;;;5095093;28;20536;-78
2022/08/24 03:11:04;;;;;;;6.30;3.90;;;;;;;;;;5094399;28;20851;-79
2022/08/24 03:13:32;;;;;;;4.10;3.70;;;;;;;;;;5088491;28;20471;-79
2022/08/24 03:16:00;;;;;;;5.10;3.40;;;;;;;;;;5090457;28;20473;-78
2022/08/24 03:18:27;;;;;;;6.20;4.50;;;;;;;;;;5093884;28;20446;-77
2022/08/24 03:20:55;;;;;;;5.70;3.93;;;;;;;;;;5092642;28;20855;-79
2022/08/24 03:23:23;;;;;;;7.77;4.43;;;;;;;;;;5092725;28;20451;-80
2022/08/24 03:25:52;;;;;;;6.00;4.10;;;;;;;;;;5093030;28;20455;-78
2022/08/24 03:28:19;;;;;;;4.60;3.80;;;;;;;;;;5094085;28;20443;-79
2022/08/24 03:30:47;;;;;;;5.80;4.00;;;;;;;;;;5096268;28;20994;-79
2022/08/24 03:33:14;;;;;;;5.33;4.83;;;;;;;;;;5094133;28;20857;-78
2022/08/24 03:35:41;;;;;;;4.27;3.87;;;;;;;;;;5087639;28;20502;-77
2022/08/24 03:38:09;;;;;;;5.93;4.43;;;;;;;;;;5089211;28;20514;-77
2022/08/24 03:40:36;;;;;;;5.10;3.67;;;;;;;;;;5093228;28;20825;-78
2022/08/24 03:43:05;;;;;;;6.13;4.00;;;;;;;;;;5093303;28;20965;-78
2022/08/24 03:45:32;;;;;;;4.53;4.03;;;;;;;;;;5093477;28;20462;-78
2022/08/24 03:47:59;;;;;;;5.43;4.13;;;;;;;;;;5093847;28;20538;-78
2022/08/24 03:50:27;;;;;;;3.83;3.40;;;;;;;;;;5093594;28;20497;-78
2022/08/24 03:52:54;;;;;;;5.73;4.03;;;;;;;;;;5095462;28;20539;-79
2022/08/24 03:55:21;;;;;;;5.50;3.70;;;;;;;;;;5093734;28;20479;-79
2022/08/24 03:57:48;;;;;;;6.10;4.30;;;;;;;;;;5088842;28;20522;-78
2022/08/24 04:00:17;;;;;;;7.33;4.77;;;;;;;;;;5089797;28;20854;-79
2022/08/24 04:02:45;;;;;;;5.17;4.10;;;;;;;;;;5092983;28;20441;-79
2022/08/24 04:05:13;;;;;;;5.83;4.00;;;;;;;;;;5092652;28;20521;-78
2022/08/24 04:07:40;;;;;;;5.20;4.40;;;;;;;;;;5091963;28;20815;-78
2022/08/24 04:10:08;;;;;;;6.13;4.23;;;;;;;;;;5093093;28;20488;-79
2022/08/24 04:12:35;;;;;;;5.70;4.30;;;;;;;;;;5092816;28;20939;-79
2022/08/24 04:15:02;;;;;;;7.00;4.50;;;;;;;;;;5094559;28;20487;-79
2022/08/24 04:17:31;;;;;;;7.50;4.40;;;;;;;;;;5093755;28;20467;-79
2022/08/24 04:19:58;;;;;;;4.70;4.30;;;;;;;;;;5088694;28;20762;-79
2022/08/24 04:22:26;;;;;;;7.87;4.20;;;;;;;;;;5089242;28;20435;-79
2022/08/24 04:24:53;;;;;;;9.93;4.93;;;;;;;;;;5092709;28;20562;-78
2022/08/24 04:27:21;;;;;;;5.50;4.10;;;;;;;;;;5091159;28;20443;-79
2022/08/24 04:29:48;;;;;;;5.93;4.40;;;;;;;;;;5092944;28;20536;-79
2022/08/24 04:32:15;;;;;;;4.77;4.27;;;;;;;;;;5092835;28;20436;-78
2022/08/24 04:34:44;;;;;;;8.17;4.73;;;;;;;;;;5091203;28;20487;-79
2022/08/24 04:37:12;;;;;;;5.50;4.70;;;;;;;;;;5094499;28;20447;-81
2022/08/24 04:39:40;;;;;;;8.67;4.27;;;;;;;;;;5094125;28;20414;-78
2022/08/24 04:42:08;;;;;;;4.80;4.30;;;;;;;;;;5087977;28;20509;-77
2022/08/24 04:44:35;;;;;;;8.20;4.73;;;;;;;;;;5089183;28;20462;-79
2022/08/24 04:47:03;;;;;;;5.67;4.63;;;;;;;;;;5091385;28;20530;-79
2022/08/24 04:49:30;;;;;;;7.63;4.37;;;;;;;;;;5091828;28;20538;-79
2022/08/24 04:51:59;;;;;;;8.10;4.63;;;;;;;;;;5092395;28;20892;-78
2022/08/24 04:54:27;;;;;;;7.53;4.77;;;;;;;;;;5092353;28;20483;-78
2022/08/24 04:56:54;;;;;;;5.40;4.90;;;;;;;;;;5092012;28;20970;-80
2022/08/24 04:59:21;;;;;;;5.70;4.40;;;;;;;;;;5094277;28;20542;-79
2022/08/24 05:01:48;;;;;;;5.37;4.87;;;;;;;;;;5094308;28;20992;-77
2022/08/24 05:04:16;;;;;;;6.93;4.40;;;;;;;;;;5088245;28;20511;-78
2022/08/24 05:06:43;;;;;;;6.87;4.37;;;;;;;;;;5087855;28;20506;-78
2022/08/24 05:09:11;;;;;;;6.80;4.27;;;;;;;;;;5091141;28;20525;-78
2022/08/24 05:11:40;;;;;;;6.80;4.40;;;;;;;;;;5091749;28;20446;-78
2022/08/24 05:14:07;;;;;;;5.17;4.50;;;;;;;;;;5091698;28;20479;-78
2022/08/24 05:16:36;;;;;;;5.73;4.13;;;;;;;;;;5092076;28;20466;-77
2022/08/24 05:19:03;;;;;;;5.03;4.50;;;;;;;;;;5091152;28;20447;-77
2022/08/24 05:21:31;;;;;;;7.13;4.90;;;;;;;;;;5094696;28;20552;-79
2022/08/24 05:23:58;;;;;;;6.07;5.10;;;;;;;;;;5093794;28;20445;-79
2022/08/24 05:26:27;;;;;;;5.60;4.60;;;;;;;;;;5089048;28;20567;-79
2022/08/24 05:28:55;;;;;;;7.20;4.60;;;;;;;;;;5087414;28;20538;-77
2022/08/24 05:31:23;;;;;;;5.57;4.27;;;;;;;;;;5089037;28;20531;-79
2022/08/24 05:33:51;;;;;;;8.10;5.20;;;;;;;;;;5091464;28;20529;-78
2022/08/24 05:36:20;;;;;;;5.83;5.20;;;;;;;;;;5091247;28;20482;-80
2022/08/24 05:38:47;;;;;;;7.13;4.60;;;;;;;;;;5092023;28;20449;-78
2022/08/24 05:41:15;;;;;;;8.10;4.83;;;;;;;;;;5091136;28;20461;-81
2022/08/24 05:43:43;;;;;;;7.87;6.20;;;;;;;;;;5093337;28;20954;-80
2022/08/24 05:46:10;;;;;;;7.97;4.80;;;;;;;;;;5093331;28;20462;-79
2022/08/24 05:48:38;;;;;;;4.87;4.37;;;;;;;;;;5089822;28;20442;-78
2022/08/24 05:51:06;;;;;;;6.00;4.50;;;;;;;;;;5087205;28;20497;-78
2022/08/24 05:53:34;;;;;;;10.47;5.20;;;;;;;;;;5089651;28;20469;-77
2022/08/24 05:56:03;;;;;;;5.87;4.40;;;;;;;;;;5091032;28;20595;-79
2022/08/24 05:58:30;;;;;;;5.37;4.10;;;;;;;;;;5091551;28;20538;-79
2022/08/24 06:00:59;;;;;;;4.90;4.40;;;;;;;;;;5091801;28;20827;-80
2022/08/24 06:03:26;;;;;;;8.40;4.27;;;;;;;;;;5091467;28;20435;-79
2022/08/24 06:05:53;;;;;;;5.00;4.50;;;;;;;;;;5092378;28;20562;-80
2022/08/24 06:08:21;;;;;;;7.27;5.07;;;;;;;;;;5093494;28;20431;-80
2022/08/24 06:10:48;;;;;;;5.90;4.63;;;;;;;;;;5090398;28;20450;-80
2022/08/24 06:13:15;;;;;;;9.60;4.83;;;;;;;;;;5087071;28;20439;-79
2022/08/24 06:15:43;;;;;;;9.67;5.20;;;;;;;;;;5088787;28;20485;-79
2022/08/24 06:18:12;;;;;;;6.27;4.83;;;;;;;;;;5091068;28;20471;-77
2022/08/24 06:20:40;;;;;;;8.13;4.07;;;;;;;;;;5091073;28;20467;-77
2022/08/24 06:23:07;;;;;;;6.97;4.60;;;;;;;;;;5091030;28;20837;-78
2022/08/24 06:28:16;;;;;;;6.27;4.50;;;;;;;;;;5091847;28;20443;-78
2022/08/24 06:30:43;;;;;;;6.97;4.87;;;;;;;;;;5093189;28;20538;-78
2022/08/24 06:33:12;;;;;;;6.37;4.37;;;;;;;;;;5090246;28;20523;-79
2022/08/24 06:35:39;;;;;;;6.43;4.47;;;;;;;;;;5086183;28;20479;-79
2022/08/24 06:38:06;;;;;;;6.93;4.60;;;;;;;;;;5092116;28;20526;-84
2022/08/24 06:40:33;;;;;;;5.20;4.40;;;;;;;;;;5094843;28;20460;-81
2022/08/24 06:43:02;;;;;;;6.63;4.53;;;;;;;;;;5094484;28;20545;-81
2022/08/24 06:45:29;;;;;;;11.60;5.00;;;;;;;;;;5093323;28;20455;-79
2022/08/24 06:47:57;;;;;;;7.03;4.47;;;;;;;;;;5094858;28;20518;-78
2022/08/24 06:50:26;;;;;;;4.43;3.47;;;;;;;;;;5095231;28;20455;-78
2022/08/24 06:52:53;;;;;;;6.77;4.50;;;;;;;;;;5096786;28;20530;-77
2022/08/24 06:55:21;;;;;;;8.83;3.50;;;;;;;;;;5094295;28;20479;-78
2022/08/24 06:57:48;;;;;;;7.60;4.27;;;;;;;;;;5090007;28;20436;-78
2022/08/24 07:00:16;;;;;;;5.57;4.17;;;;;;;;;;5091485;28;20435;-79
2022/08/24 07:02:43;;;;;;;6.30;3.43;;;;;;;;;;5094105;28;20534;-79
2022/08/24 07:05:10;;;;;;;5.20;3.80;;;;;;;;;;5093925;28;20574;-79
2022/08/24 07:07:39;;;;;;;5.93;3.93;;;;;;;;;;5094081;28;21040;-78
2022/08/24 07:10:08;;;;;;;7.67;4.33;;;;;;;;;;5094631;28;20538;-79
2022/08/24 07:12:35;;;;;;;8.00;3.60;;;;;;;;;;5094716;28;20547;-79
2022/08/24 07:15:02;;;;;;;8.40;3.90;;;;;;;;;;5095912;28;20489;-81
2022/08/24 07:17:30;;;;;;;5.23;4.00;;;;;;;;;;5094247;28;20431;-82
2022/08/24 07:19:57;;;;;;;8.20;4.30;;;;;;;;;;5090019;28;20439;-79
2022/08/24 07:22:24;;;;;;;9.03;3.80;;;;;;;;;;5090858;28;20806;-78
2022/08/24 07:24:53;;;;;;;7.37;3.43;;;;;;;;;;5093914;28;20554;-79
2022/08/24 07:27:22;;;;;;;6.53;3.40;;;;;;;;;;5093966;28;20458;-78
2022/08/24 07:29:49;;;;;;;11.40;3.77;;;;;;;;;;5093699;28;20435;-78
2022/08/24 07:32:16;;;;;;;7.80;3.87;;;;;;;;;;5094166;28;20446;-77
2022/08/24 07:34:43;;;;;;;4.63;3.23;;;;;;;;;;5093773;28;20491;-77
2022/08/24 07:37:11;;;;;;;7.57;3.80;;;;;;;;;;5095723;28;20550;-77
2022/08/24 07:39:38;;;;;;;5.50;3.43;;;;;;;;;;5094480;28;20432;-78
2022/08/24 07:42:07;;;;;;;5.23;4.10;;;;;;;;;;5089329;28;20430;-77
2022/08/24 07:44:34;;;;;;;7.43;4.20;;;;;;;;;;5089740;28;20481;-79
2022/08/24 07:47:02;;;;;;;11.23;3.80;;;;;;;;;;5093243;28;20450;-79
2022/08/24 07:49:29;;;;;;;6.10;3.93;;;;;;;;;;5092168;28;21014;-78
2022/08/24 07:51:57;;;;;;;4.40;3.27;;;;;;;;;;5092262;28;20446;-79
2022/08/24 07:54:24;;;;;;;5.03;3.60;;;;;;;;;;5093369;28;20530;-78
2022/08/24 07:56:51;;;;;;;5.40;3.70;;;;;;;;;;5093529;28;20482;-80
2022/08/24 07:59:21;;;;;;;4.00;3.60;;;;;;;;;;5095214;28;20529;-79
2022/08/24 08:01:49;;;;;;;7.17;4.53;;;;;;;;;;5095140;28;20920;-78
2022/08/24 08:04:20;;;;;;;4.63;3.30;;;;;;;;;;5079916;28;20821;-80
2022/08/24 08:06:48;;;;;;;5.90;3.40;;;;;;;;;;5089814;28;20554;-80
2022/08/24 08:09:15;;;;;;;5.90;4.40;;;;;;;;;;5092195;28;20530;-80
2022/08/24 08:11:42;;;;;;;6.20;3.50;;;;;;;;;;5092524;28;20870;-79
2022/08/24 08:14:09;;;;;;;5.73;3.40;;;;;;;;;;5093116;28;20805;-79
2022/08/24 08:16:38;;;;;;;5.00;3.80;;;;;;;;;;5093069;28;20487;-78
2022/08/24 08:19:05;;;;;;;6.30;3.30;;;;;;;;;;5092880;28;20462;-81
2022/08/24 08:24:15;;;;;;;5.03;3.00;;;;;;;;;;5093240;28;20415;-79
2022/08/24 08:26:42;;;;;;;5.53;2.97;;;;;;;;;;5088651;28;20435;-78
2022/08/24 08:29:11;;;;;;;9.80;3.67;;;;;;;;;;5089333;28;20442;-79
2022/08/24 08:31:40;;;;;;;5.57;3.13;;;;;;;;;;5091198;28;20551;-79
2022/08/24 08:34:08;;;;;;;4.73;3.13;;;;;;;;;;5092354;28;20546;-81
2022/08/24 08:36:37;;;;;;;6.23;4.07;;;;;;;;;;5090766;28;20570;-80
2022/08/24 08:39:04;;;;;;;6.20;3.50;;;;;;;;;;5092662;28;20608;-81
2022/08/24 08:41:47;;;;;;;5.67;3.70;;;;;;;;;;5092576;28;20522;-78
2022/08/24 08:44:18;;;;;;;5.43;3.30;;;;;;;;;;5087054;28;20431;-78
2022/08/24 08:46:54;;;;;;;6.00;3.43;;;;;;;;;;5087670;28;20532;-79
2022/08/24 08:49:29;;;;;;;5.30;2.90;;;;;;;;;;5091449;28;20442;-78
2022/08/24 08:52:06;;;;;;;8.93;3.67;;;;;;;;;;5091998;28;20529;-78
2022/08/24 08:54:37;;;;;;;6.80;3.87;;;;;;;;;;5092207;28;20535;-80
2022/08/24 08:57:13;;;;;;;7.90;3.47;;;;;;;;;;5092403;28;20435;-78
2022/08/24 08:59:54;;;;;;;6.73;3.63;;;;;;;;;;5091892;28;20461;-79
2022/08/24 09:02:31;;;;;;;5.30;3.73;;;;;;;;;;5094199;28;20873;-80
2022/08/24 09:05:14;;;;;;;5.00;3.53;;;;;;;;;;5091577;28;21031;-80
2022/08/24 09:07:45;;;;;;;3.40;2.70;;;;;;;;;;5086635;28;20439;-77
2022/08/24 09:10:22;;;;;;;5.93;3.20;;;;;;;;;;5089537;28;20440;-80
2022/08/24 09:12:56;;;;;;;6.63;3.40;;;;;;;;;;5091669;28;20963;-79
2022/08/24 09:15:35;;;;;;;4.57;3.37;;;;;;;;;;5091750;28;20934;-79
2022/08/24 09:18:11;;;;;;;7.13;3.90;;;;;;;;;;5092159;28;20444;-78
2022/08/24 09:20:47;;;;;;;5.00;2.97;;;;;;;;;;5091296;28;20446;-80
2022/08/24 09:23:20;;;;;;;9.77;3.80;;;;;;;;;;5073748;28;20432;-78
2022/08/24 09:25:51;;;;;;;8.93;3.47;;;;;;;;;;5072346;28;20460;-79
2022/08/24 09:28:27;;;;;;;6.03;2.87;;;;;;;;;;5086264;28;20526;-80
2022/08/24 09:31:09;;;;;;;3.83;3.07;;;;;;;;;;5087633;28;20522;-78
2022/08/24 09:33:42;;;;;;;3.70;3.00;;;;;;;;;;5090762;28;20447;-78
2022/08/24 09:36:12;;;;;;;4.57;2.93;;;;;;;;;;5090994;28;20573;-78
2022/08/24 09:38:54;;;;;;;6.20;3.40;;;;;;;;;;5091744;28;20443;-77
2022/08/24 09:41:31;;;;;;;6.10;3.30;;;;;;;;;;5092010;28;20453;-80
2022/08/24 09:44:08;;;;;;;6.03;3.47;;;;;;;;;;5091824;28;20944;-78
2022/08/24 09:46:51;;;;;;;4.67;3.60;;;;;;;;;;5093694;28;20459;-80
2022/08/24 09:49:33;;;;;;;4.67;3.30;;;;;;;;;;5091405;28;20860;-79
2022/08/24 09:52:14;;;;;;;7.73;3.93;;;;;;;;;;5086791;28;22152;-78
2022/08/24 09:54:56;;;;;;;8.00;3.90;;;;;;;;;;5089172;28;20546;-79
2022/08/24 09:57:31;;;;;;;4.67;3.57;;;;;;;;;;5090202;28;20877;-80
2022/08/24 10:00:07;;;;;;;5.60;3.67;;;;;;;;;;5091753;28;20534;-79
2022/08/24 10:02:41;;;;;;;8.70;3.83;;;;;;;;;;5092217;28;20523;-79
2022/08/24 10:05:13;;;;;;;3.60;3.30;;;;;;;;;;5090959;28;20826;-80
2022/08/24 10:07:45;;;;;;;6.93;3.97;;;;;;;;;;5093429;28;20530;-78
2022/08/24 10:10:18;;;;;;;4.60;3.63;;;;;;;;;;5094017;28;20546;-78
2022/08/24 10:12:51;;;;;;;6.20;3.63;;;;;;;;;;5091838;28;20450;-80
2022/08/24 10:15:21;;;;;;;5.33;3.23;;;;;;;;;;5090685;28;20795;-80
2022/08/24 10:17:57;;;;;;;4.00;3.33;;;;;;;;;;5094131;28;20530;-81
2022/08/24 10:20:28;;;;;;;5.53;3.60;;;;;;;;;;5094902;28;20534;-78
2022/08/24 10:23:04;;;;;;;7.90;3.43;;;;;;;;;;5094867;28;20442;-80
2022/08/24 10:25:34;;;;;;;5.07;3.17;;;;;;;;;;5094499;28;20516;-80
2022/08/24 10:28:06;;;;;;;5.43;3.73;;;;;;;;;;5094817;28;20458;-79
2022/08/24 10:30:41;;;;;;;4.63;3.40;;;;;;;;;;5097241;28;20538;-78
2022/08/24 10:33:13;;;;;;;5.17;4.20;;;;;;;;;;5096984;28;20609;-78
2022/08/24 10:35:48;;;;;;;5.30;3.20;;;;;;;;;;5090338;28;20533;-78
2022/08/24 10:41:15;;;;;;;5.30;3.67;;;;;;;;;;5092052;28;20455;-78
2022/08/24 10:43:52;;;;;;;7.30;4.10;;;;;;;;;;5094380;28;20445;-81
2022/08/24 10:46:34;;;;;;;4.30;3.80;;;;;;;;;;5094859;28;20474;-81
2022/08/24 10:49:16;;;;;;;5.40;3.47;;;;;;;;;;5094145;28;20530;-79
2022/08/24 10:51:52;;;;;;;5.77;3.37;;;;;;;;;;5094950;28;20534;-81
2022/08/24 10:54:22;;;;;;;4.50;3.70;;;;;;;;;;5096218;28;20534;-78
2022/08/24 10:56:54;;;;;;;4.70;3.47;;;;;;;;;;5094319;28;20560;-80
2022/08/24 10:59:24;;;;;;;9.30;3.90;;;;;;;;;;5090452;28;20432;-79
2022/08/24 11:02:06;;;;;;;3.90;2.90;;;;;;;;;;5091766;28;20442;-81
2022/08/24 11:04:34;;;;;;;3.80;2.63;;;;;;;;;;5092920;28;21000;-80
2022/08/24 11:07:06;;;;;;;2.97;2.60;;;;;;;;;;5094249;28;20470;-82
2022/08/24 11:09:45;;;;;;;3.80;2.67;;;;;;;;;;5094369;28;20440;-78
2022/08/24 11:12:18;;;;;;;6.00;3.27;;;;;;;;;;5094240;28;20523;-79
2022/08/24 11:14:48;;;;;;;4.87;3.13;;;;;;;;;;5094110;28;20570;-81
2022/08/24 11:17:16;;;;;;;2.97;2.77;;;;;;;;;;5094818;28;20498;-83
2022/08/24 11:19:44;;;;;;;3.70;2.67;;;;;;;;;;5092899;28;20436;-79
2022/08/24 11:22:25;;;;;;;5.73;3.27;;;;;;;;;;5089057;28;20912;-80
2022/08/24 11:24:55;;;;;;;2.67;2.47;;;;;;;;;;5092025;28;20814;-81
2022/08/24 11:27:27;;;;;;;4.97;3.03;;;;;;;;;;5092325;28;20777;-82
2022/08/24 11:29:56;;;;;;;3.30;2.63;;;;;;;;;;5092812;28;20454;-78
2022/08/24 11:32:28;;;;;;;5.27;3.20;;;;;;;;;;5094417;28;20474;-80
2022/08/24 11:34:55;;;;;;;4.63;3.10;;;;;;;;;;5093366;28;20557;-77
2022/08/24 11:37:26;;;;;;;5.07;3.07;;;;;;;;;;5095191;28;20490;-80
2022/08/24 11:39:54;;;;;;;6.20;2.80;;;;;;;;;;5095103;28;20550;-79
2022/08/24 11:42:25;;;;;;;3.63;2.60;;;;;;;;;;5092058;28;20522;-79
2022/08/24 11:44:55;;;;;;;2.57;2.37;;;;;;;;;;5089616;28;20457;-77
2022/08/24 11:47:31;;;;;;;3.67;2.80;;;;;;;;;;5091805;28;20475;-81
2022/08/24 11:50:02;;;;;;;2.30;2.00;;;;;;;;;;5093060;28;20439;-80
2022/08/24 11:52:35;;;;;;;5.03;2.00;;;;;;;;;;5093194;28;20439;-80
2022/08/24 11:55:07;;;;;;;2.43;2.10;;;;;;;;;;5093836;28;20455;-80
2022/08/24 11:57:39;;;;;;;2.83;2.00;;;;;;;;;;5092041;28;20615;-79
2022/08/24 12:00:09;;;;;;;3.50;2.37;;;;;;;;;;5074865;28;20444;-78
2022/08/24 12:02:39;;;;;;;4.03;2.40;;;;;;;;;;5074920;28;20448;-80
2022/08/24 12:05:09;;;;;;;2.53;2.23;;;;;;;;;;5085002;28;20463;-79
2022/08/24 12:07:48;;;;;;;4.00;2.63;;;;;;;;;;5088977;28;20968;-80
2022/08/24 12:10:21;;;;;;;4.57;2.40;;;;;;;;;;5092220;28;20439;-80
2022/08/24 12:12:52;;;;;;;4.60;2.67;;;;;;;;;;5091397;28;20529;-80
2022/08/24 12:15:23;;;;;;;4.10;2.80;;;;;;;;;;5092705;28;20466;-81
2022/08/24 12:17:53;;;;;;;4.90;3.10;;;;;;;;;;5093239;28;20995;-81
2022/08/24 12:20:26;;;;;;;3.23;2.70;;;;;;;;;;5092773;28;21352;-81
2022/08/24 12:22:54;;;;;;;3.53;2.50;;;;;;;;;;5093790;28;20496;-81
2022/08/24 12:28:06;;;;;;;6.13;3.27;;;;;;;;;;5088056;28;20467;-79
2022/08/24 12:30:34;;;;;;;5.30;2.00;;;;;;;;;;5089077;28;20861;-79
2022/08/24 12:33:02;;;;;;;3.57;2.10;;;;;;;;;;5091899;28;21011;-79
2022/08/24 12:35:32;;;;;;;4.63;2.33;;;;;;;;;;5091444;28;20469;-79
2022/08/24 12:38:03;;;;;;;2.80;2.60;;;;;;;;;;5092452;28;20480;-78
2022/08/24 12:40:33;;;;;;;3.30;2.20;;;;;;;;;;5092612;28;20542;-79
2022/08/24 12:43:03;;;;;;;2.40;2.20;;;;;;;;;;5091215;28;20486;-78
2022/08/24 12:45:31;;;;;;;4.00;2.50;;;;;;;;;;5094420;28;20563;-79
2022/08/24 12:48:00;;;;;;;4.77;2.70;;;;;;;;;;5094368;28;20537;-78
2022/08/24 12:50:30;;;;;;;3.33;2.40;;;;;;;;;;5088585;28;20432;-79
2022/08/24 12:53:12;;;;;;;2.47;2.27;;;;;;;;;;5088183;28;20455;-79
2022/08/24 12:55:51;;;;;;;3.60;2.20;;;;;;;;;;5090160;28;20562;-78
2022/08/24 12:58:29;;;;;;;2.43;2.23;;;;;;;;;;5091856;28;20534;-79
2022/08/24 13:00:57;;;;;;;3.77;2.20;;;;;;;;;;5092304;28;20443;-78
2022/08/24 13:03:27;;;;;;;2.60;2.30;;;;;;;;;;5092232;28;20874;-80
2022/08/24 13:05:58;;;;;;;2.50;2.00;;;;;;;;;;5091016;28;21035;-79
2022/08/24 13:08:34;;;;;;;4.03;2.40;;;;;;;;;;5094410;28;20431;-78
2022/08/24 13:11:04;;;;;;;3.00;2.37;;;;;;;;;;5092136;28;20443;-77
2022/08/24 13:13:46;;;;;;;6.90;1.90;;;;;;;;;;5087505;28;20894;-81
2022/08/24 13:16:28;;;;;;;2.00;1.80;;;;;;;;;;5087597;28;20489;-78
2022/08/24 13:19:11;;;;;;;2.03;1.83;;;;;;;;;;5090788;28;20538;-78
2022/08/24 13:21:42;;;;;;;4.70;2.60;;;;;;;;;;5090633;28;20539;-78
2022/08/24 13:24:24;;;;;;;6.13;2.27;;;;;;;;;;5090594;28;20815;-78
2022/08/24 13:26:55;;;;;;;2.10;1.90;;;;;;;;;;5091701;28;20475;-80
2022/08/24 13:29:26;;;;;;;2.30;2.10;;;;;;;;;;5092807;28;20455;-80
2022/08/24 13:31:54;;;;;;;3.83;2.27;;;;;;;;;;5093764;28;20443;-81
2022/08/24 13:34:36;;;;;;;3.60;2.30;;;;;;;;;;5089620;28;20488;-80
2022/08/24 13:37:13;;;;;;;2.40;1.70;;;;;;;;;;5086288;28;20511;-81
2022/08/24 13:39:55;;;;;;;2.90;2.40;;;;;;;;;;5089655;28;20536;-81
2022/08/24 13:42:36;;;;;;;2.80;2.50;;;;;;;;;;5091005;28;20446;-81
2022/08/24 13:45:12;;;;;;;1.87;1.57;;;;;;;;;;5091320;28;20542;-81
2022/08/24 13:47:49;;;;;;;2.40;1.87;;;;;;;;;;5095390;28;20985;-80
2022/08/24 13:50:28;;;;;;;2.50;2.30;;;;;;;;;;5095320;28;20962;-80
2022/08/24 13:53:04;;;;;;;2.53;2.33;;;;;;;;;;5096729;28;20529;-81
2022/08/24 13:55:35;;;;;;;2.77;2.10;;;;;;;;;;5098197;28;20545;-81
2022/08/24 13:58:17;;;;;;;4.00;2.30;;;;;;;;;;5092369;28;21080;-81
2022/08/24 14:00:49;;;;;;;2.23;1.90;;;;;;;;;;5091339;28;20522;-81
2022/08/24 14:03:26;;;;;;;2.60;2.33;;;;;;;;;;5093482;28;20518;-81
2022/08/24 14:05:55;;;;;;;2.60;2.40;;;;;;;;;;5094783;28;20462;-80
2022/08/24 14:08:29;;;;;;;3.37;2.20;;;;;;;;;;5094465;28;20445;-80
2022/08/24 14:11:02;;;;;;;3.07;2.40;;;;;;;;;;5095707;28;20435;-79
2022/08/24 14:13:35;;;;;;;3.40;2.47;;;;;;;;;;5095467;28;20549;-81
2022/08/24 14:18:53;;;;;;;3.60;2.60;;;;;;;;;;5095719;28;20430;-81
2022/08/24 14:21:21;;;;;;;4.07;2.37;;;;;;;;;;5091047;28;20431;-81
2022/08/24 14:23:54;;;;;;;2.83;2.40;;;;;;;;;;5092086;28;20427;-81
2022/08/24 14:26:36;;;;;;;2.50;2.30;;;;;;;;;;5094719;28;20863;-81
2022/08/24 14:29:18;;;;;;;2.60;2.23;;;;;;;;;;5094373;28;20442;-80
2022/08/24 14:32:09;;;;;;;5.53;2.53;;;;;;;;;;5094805;28;21003;-80
2022/08/24 14:34:39;;;;;;;2.90;2.60;;;;;;;;;;5093598;28;20840;-81
2022/08/24 14:37:18;;;;;;;5.00;2.67;;;;;;;;;;5095834;28;20479;-79
2022/08/24 14:39:48;;;;;;;2.50;2.10;;;;;;;;;;5096915;28;20449;-79
2022/08/24 14:42:17;;;;;;;2.20;2.00;;;;;;;;;;5091153;28;20526;-80
2022/08/24 14:44:49;;;;;;;3.20;2.60;;;;;;;;;;5088963;28;20804;-78
2022/08/24 14:47:21;;;;;;;5.10;2.50;;;;;;;;;;5093182;28;20534;-79
2022/08/24 14:49:57;;;;;;;5.73;2.97;;;;;;;;;;5094069;28;20446;-80
2022/08/24 14:52:39;;;;;;;3.00;2.70;;;;;;;;;;5094594;28;20442;-79
2022/08/24 14:55:09;;;;;;;2.57;2.37;;;;;;;;;;5094885;28;20845;-81
2022/08/24 14:57:52;;;;;;;4.13;2.67;;;;;;;;;;5093595;28;20565;-79
2022/08/24 15:00:20;;;;;;;3.97;2.57;;;;;;;;;;5095558;28;20439;-78
2022/08/24 15:03:01;;;;;;;3.53;2.53;;;;;;;;;;5096308;28;20522;-79
2022/08/24 15:05:36;;;;;;;6.50;2.80;;;;;;;;;;5088849;28;20455;-79
2022/08/24 15:08:06;;;;;;;3.43;2.57;;;;;;;;;;5090790;28;20435;-78
2022/08/24 15:10:36;;;;;;;3.37;2.70;;;;;;;;;;5093722;28;20534;-80
2022/08/24 15:13:06;;;;;;;3.07;2.63;;;;;;;;;;5092877;28;20478;-79
2022/08/24 15:15:38;;;;;;;3.43;2.70;;;;;;;;;;5094147;28;20558;-77
2022/08/24 15:18:10;;;;;;;3.90;2.50;;;;;;;;;;5093220;28;20850;-79